sensor_id;sensor_type;location;lat;lon;timestamp;P1;durP1;ratioP1;P2;durP2;ratioP2
10041;SDS011;5061;49.068;12.058;2023-02-28T00:01:48;5.07;;;3.23;;
10041;SDS011;5061;49.068;12.058;2023-02-28T00:05:09;5.03;;;3.00;;
10041;SDS011;5061;49.068;12.058;2023-02-28T00:08:31;5.07;;;3.80;;
10041;SDS011;5061;49.068;12.058;2023-02-28T00:11:52;5.60;;;3.03;;
10041;SDS011;5061;49.068;12.058;2023-02-28T00:15:13;4.50;;;3.27;;
10041;SDS011;5061;49.068;12.058;2023-02-28T00:18:33;4.83;;;3.00;;
10041;SDS011;5061;49.068;12.058;2023-02-28T00:21:54;6.77;;;3.30;;
10041;SDS011;5061;49.068;12.058;2023-02-28T00:25:16;5.10;;;3.60;;
10041;SDS011;5061;49.068;12.058;2023-02-28T00:28:41;5.07;;;2.73;;
10041;SDS011;5061;49.068;12.058;2023-02-28T00:32:02;5.40;;;3.43;;
10041;SDS011;5061;49.068;12.058;2023-02-28T00:35:23;4.40;;;3.10;;
10041;SDS011;5061;49.068;12.058;2023-02-28T00:38:43;4.33;;;3.60;;
10041;SDS011;5061;49.068;12.058;2023-02-28T00:42:04;5.03;;;3.47;;
10041;SDS011;5061;49.068;12.058;2023-02-28T00:45:25;3.80;;;3.07;;
10041;SDS011;5061;49.068;12.058;2023-02-28T00:48:46;5.37;;;3.50;;
10041;SDS011;5061;49.068;12.058;2023-02-28T00:52:07;5.37;;;3.67;;
10041;SDS011;5061;49.068;12.058;2023-02-28T00:55:27;5.43;;;3.37;;
10041;SDS011;5061;49.068;12.058;2023-02-28T00:58:48;3.60;;;2.90;;
10041;SDS011;5061;49.068;12.058;2023-02-28T01:02:08;7.17;;;3.20;;
10041;SDS011;5061;49.068;12.058;2023-02-28T01:05:29;5.17;;;3.13;;
10041;SDS011;5061;49.068;12.058;2023-02-28T01:08:49;4.50;;;2.77;;
10041;SDS011;5061;49.068;12.058;2023-02-28T01:12:10;4.07;;;3.00;;
10041;SDS011;5061;49.068;12.058;2023-02-28T01:15:31;9.47;;;4.20;;
10041;SDS011;5061;49.068;12.058;2023-02-28T01:18:52;5.43;;;3.07;;
10041;SDS011;5061;49.068;12.058;2023-02-28T01:22:12;5.57;;;3.77;;
10041;SDS011;5061;49.068;12.058;2023-02-28T01:25:36;5.57;;;3.53;;
10041;SDS011;5061;49.068;12.058;2023-02-28T01:28:57;9.10;;;4.50;;
10041;SDS011;5061;49.068;12.058;2023-02-28T01:32:18;6.10;;;3.40;;
10041;SDS011;5061;49.068;12.058;2023-02-28T01:35:38;8.30;;;4.27;;
10041;SDS011;5061;49.068;12.058;2023-02-28T01:38:59;8.30;;;4.30;;
10041;SDS011;5061;49.068;12.058;2023-02-28T01:42:19;7.70;;;4.70;;
10041;SDS011;5061;49.068;12.058;2023-02-28T01:45:40;8.00;;;4.23;;
10041;SDS011;5061;49.068;12.058;2023-02-28T01:49:06;6.13;;;4.17;;
10041;SDS011;5061;49.068;12.058;2023-02-28T01:52:30;9.03;;;4.50;;
10041;SDS011;5061;49.068;12.058;2023-02-28T01:55:52;6.40;;;3.83;;
10041;SDS011;5061;49.068;12.058;2023-02-28T01:59:14;5.63;;;3.60;;
10041;SDS011;5061;49.068;12.058;2023-02-28T02:02:42;7.50;;;3.43;;
10041;SDS011;5061;49.068;12.058;2023-02-28T02:06:05;4.33;;;3.77;;
10041;SDS011;5061;49.068;12.058;2023-02-28T02:09:26;7.40;;;3.70;;
10041;SDS011;5061;49.068;12.058;2023-02-28T02:16:36;5.07;;;3.83;;
10041;SDS011;5061;49.068;12.058;2023-02-28T02:31:03;5.53;;;3.13;;
10041;SDS011;5061;49.068;12.058;2023-02-28T02:34:42;5.23;;;3.17;;
10041;SDS011;5061;49.068;12.058;2023-02-28T02:38:20;6.70;;;3.77;;
10041;SDS011;5061;49.068;12.058;2023-02-28T02:41:52;7.13;;;4.13;;
10041;SDS011;5061;49.068;12.058;2023-02-28T02:48:56;6.30;;;3.43;;
10041;SDS011;5061;49.068;12.058;2023-02-28T02:52:20;6.60;;;3.33;;
10041;SDS011;5061;49.068;12.058;2023-02-28T02:55:46;10.63;;;4.67;;
10041;SDS011;5061;49.068;12.058;2023-02-28T02:59:13;7.50;;;3.90;;
10041;SDS011;5061;49.068;12.058;2023-02-28T03:02:41;4.93;;;3.40;;
10041;SDS011;5061;49.068;12.058;2023-02-28T03:06:04;4.90;;;3.43;;
10041;SDS011;5061;49.068;12.058;2023-02-28T03:09:26;4.50;;;3.37;;
10041;SDS011;5061;49.068;12.058;2023-02-28T03:12:49;6.40;;;3.63;;
10041;SDS011;5061;49.068;12.058;2023-02-28T03:23:42;5.80;;;3.60;;
10041;SDS011;5061;49.068;12.058;2023-02-28T03:27:11;6.20;;;3.67;;
10041;SDS011;5061;49.068;12.058;2023-02-28T03:30:54;8.63;;;3.60;;
10041;SDS011;5061;49.068;12.058;2023-02-28T03:34:38;5.17;;;2.80;;
10041;SDS011;5061;49.068;12.058;2023-02-28T03:38:05;5.07;;;3.27;;
10041;SDS011;5061;49.068;12.058;2023-02-28T03:45:39;6.03;;;3.87;;
10041;SDS011;5061;49.068;12.058;2023-02-28T03:49:02;4.83;;;3.70;;
10041;SDS011;5061;49.068;12.058;2023-02-28T03:52:47;7.97;;;4.23;;
10041;SDS011;5061;49.068;12.058;2023-02-28T03:56:39;9.00;;;4.10;;
10041;SDS011;5061;49.068;12.058;2023-02-28T04:00:09;7.80;;;4.60;;
10041;SDS011;5061;49.068;12.058;2023-02-28T04:03:36;7.40;;;4.63;;
10041;SDS011;5061;49.068;12.058;2023-02-28T04:07:16;9.03;;;4.73;;
10041;SDS011;5061;49.068;12.058;2023-02-28T04:10:37;8.23;;;5.03;;
10041;SDS011;5061;49.068;12.058;2023-02-28T04:13:58;8.50;;;4.33;;
10041;SDS011;5061;49.068;12.058;2023-02-28T04:17:19;7.30;;;4.40;;
10041;SDS011;5061;49.068;12.058;2023-02-28T04:20:40;6.30;;;4.20;;
10041;SDS011;5061;49.068;12.058;2023-02-28T04:24:00;14.10;;;5.73;;
10041;SDS011;5061;49.068;12.058;2023-02-28T04:27:21;7.27;;;4.00;;
10041;SDS011;5061;49.068;12.058;2023-02-28T04:30:42;7.50;;;3.80;;
10041;SDS011;5061;49.068;12.058;2023-02-28T04:34:02;9.10;;;4.63;;
10041;SDS011;5061;49.068;12.058;2023-02-28T04:37:23;10.63;;;5.17;;
10041;SDS011;5061;49.068;12.058;2023-02-28T04:40:48;8.70;;;4.63;;
10041;SDS011;5061;49.068;12.058;2023-02-28T04:44:09;6.60;;;4.53;;
10041;SDS011;5061;49.068;12.058;2023-02-28T04:47:29;6.90;;;4.67;;
10041;SDS011;5061;49.068;12.058;2023-02-28T04:50:51;7.70;;;5.10;;
10041;SDS011;5061;49.068;12.058;2023-02-28T04:54:11;6.80;;;4.37;;
10041;SDS011;5061;49.068;12.058;2023-02-28T04:57:33;10.20;;;5.33;;
10041;SDS011;5061;49.068;12.058;2023-02-28T05:00:53;11.23;;;5.33;;
10041;SDS011;5061;49.068;12.058;2023-02-28T05:04:20;8.43;;;4.77;;
10041;SDS011;5061;49.068;12.058;2023-02-28T05:07:41;7.70;;;4.60;;
10041;SDS011;5061;49.068;12.058;2023-02-28T05:11:02;9.27;;;5.43;;
10041;SDS011;5061;49.068;12.058;2023-02-28T05:14:24;9.80;;;4.87;;
10041;SDS011;5061;49.068;12.058;2023-02-28T05:17:45;7.33;;;4.43;;
10041;SDS011;5061;49.068;12.058;2023-02-28T05:21:06;6.57;;;4.20;;
10041;SDS011;5061;49.068;12.058;2023-02-28T05:24:46;8.33;;;4.93;;
10041;SDS011;5061;49.068;12.058;2023-02-28T05:28:07;8.83;;;5.13;;
10041;SDS011;5061;49.068;12.058;2023-02-28T05:31:28;6.40;;;4.70;;
10041;SDS011;5061;49.068;12.058;2023-02-28T05:34:48;7.53;;;5.37;;
10041;SDS011;5061;49.068;12.058;2023-02-28T05:38:09;9.30;;;5.33;;
10041;SDS011;5061;49.068;12.058;2023-02-28T05:41:29;7.30;;;4.73;;
10041;SDS011;5061;49.068;12.058;2023-02-28T05:44:50;9.47;;;5.40;;
10041;SDS011;5061;49.068;12.058;2023-02-28T05:48:11;10.20;;;5.10;;
10041;SDS011;5061;49.068;12.058;2023-02-28T05:51:32;8.10;;;4.70;;
10041;SDS011;5061;49.068;12.058;2023-02-28T05:54:54;12.30;;;5.80;;
10041;SDS011;5061;49.068;12.058;2023-02-28T05:58:14;10.03;;;5.80;;
10041;SDS011;5061;49.068;12.058;2023-02-28T06:01:39;11.97;;;5.23;;
10041;SDS011;5061;49.068;12.058;2023-02-28T06:05:01;11.43;;;5.83;;
10041;SDS011;5061;49.068;12.058;2023-02-28T06:08:21;13.43;;;6.47;;
10041;SDS011;5061;49.068;12.058;2023-02-28T06:11:42;12.13;;;5.87;;
10041;SDS011;5061;49.068;12.058;2023-02-28T06:15:03;9.90;;;6.30;;
10041;SDS011;5061;49.068;12.058;2023-02-28T06:18:24;12.20;;;6.27;;
10041;SDS011;5061;49.068;12.058;2023-02-28T06:21:45;11.50;;;6.47;;
10041;SDS011;5061;49.068;12.058;2023-02-28T06:25:10;9.20;;;5.63;;
10041;SDS011;5061;49.068;12.058;2023-02-28T06:28:31;8.40;;;5.40;;
10041;SDS011;5061;49.068;12.058;2023-02-28T06:31:52;8.80;;;5.90;;
10041;SDS011;5061;49.068;12.058;2023-02-28T06:35:12;9.00;;;5.30;;
10041;SDS011;5061;49.068;12.058;2023-02-28T06:38:33;7.90;;;5.00;;
10041;SDS011;5061;49.068;12.058;2023-02-28T06:41:54;9.77;;;5.53;;
10041;SDS011;5061;49.068;12.058;2023-02-28T06:45:15;12.53;;;6.40;;
10041;SDS011;5061;49.068;12.058;2023-02-28T06:48:35;8.97;;;5.70;;
10041;SDS011;5061;49.068;12.058;2023-02-28T06:51:56;8.30;;;4.93;;
10041;SDS011;5061;49.068;12.058;2023-02-28T06:55:17;9.07;;;6.07;;
10041;SDS011;5061;49.068;12.058;2023-02-28T06:58:38;9.00;;;4.43;;
10041;SDS011;5061;49.068;12.058;2023-02-28T07:01:59;10.53;;;6.37;;
10041;SDS011;5061;49.068;12.058;2023-02-28T07:05:20;16.23;;;6.13;;
10041;SDS011;5061;49.068;12.058;2023-02-28T07:08:40;12.83;;;6.60;;
10041;SDS011;5061;49.068;12.058;2023-02-28T07:12:01;11.43;;;6.00;;
10041;SDS011;5061;49.068;12.058;2023-02-28T07:15:22;10.70;;;5.70;;
10041;SDS011;5061;49.068;12.058;2023-02-28T07:18:42;14.40;;;7.00;;
10041;SDS011;5061;49.068;12.058;2023-02-28T07:22:04;10.60;;;6.00;;
10041;SDS011;5061;49.068;12.058;2023-02-28T07:25:25;12.10;;;6.37;;
10041;SDS011;5061;49.068;12.058;2023-02-28T07:28:47;8.50;;;5.43;;
10041;SDS011;5061;49.068;12.058;2023-02-28T07:32:09;10.97;;;6.63;;
10041;SDS011;5061;49.068;12.058;2023-02-28T07:35:30;11.83;;;6.93;;
10041;SDS011;5061;49.068;12.058;2023-02-28T07:38:50;9.30;;;5.80;;
10041;SDS011;5061;49.068;12.058;2023-02-28T07:42:11;9.70;;;5.80;;
10041;SDS011;5061;49.068;12.058;2023-02-28T07:45:32;12.10;;;7.00;;
10041;SDS011;5061;49.068;12.058;2023-02-28T07:48:56;12.93;;;7.07;;
10041;SDS011;5061;49.068;12.058;2023-02-28T07:52:19;11.10;;;6.37;;
10041;SDS011;5061;49.068;12.058;2023-02-28T07:55:39;11.70;;;6.13;;
10041;SDS011;5061;49.068;12.058;2023-02-28T07:59:00;10.50;;;6.60;;
10041;SDS011;5061;49.068;12.058;2023-02-28T08:02:21;11.40;;;6.67;;
10041;SDS011;5061;49.068;12.058;2023-02-28T08:05:42;11.27;;;6.80;;
10041;SDS011;5061;49.068;12.058;2023-02-28T08:09:02;11.13;;;6.40;;
10041;SDS011;5061;49.068;12.058;2023-02-28T08:12:23;13.20;;;7.87;;
10041;SDS011;5061;49.068;12.058;2023-02-28T08:15:44;9.17;;;5.90;;
10041;SDS011;5061;49.068;12.058;2023-02-28T08:19:05;11.60;;;6.20;;
10041;SDS011;5061;49.068;12.058;2023-02-28T08:22:26;17.00;;;7.23;;
10041;SDS011;5061;49.068;12.058;2023-02-28T08:25:53;11.73;;;7.00;;
10041;SDS011;5061;49.068;12.058;2023-02-28T08:29:15;12.83;;;7.50;;
10041;SDS011;5061;49.068;12.058;2023-02-28T08:32:36;13.73;;;7.80;;
10041;SDS011;5061;49.068;12.058;2023-02-28T08:35:56;9.33;;;5.90;;
10041;SDS011;5061;49.068;12.058;2023-02-28T08:39:17;12.40;;;6.63;;
10041;SDS011;5061;49.068;12.058;2023-02-28T08:42:39;12.43;;;6.80;;
10041;SDS011;5061;49.068;12.058;2023-02-28T08:46:00;13.37;;;7.50;;
10041;SDS011;5061;49.068;12.058;2023-02-28T08:49:21;14.87;;;7.50;;
10041;SDS011;5061;49.068;12.058;2023-02-28T08:52:42;11.07;;;6.93;;
10041;SDS011;5061;49.068;12.058;2023-02-28T08:56:05;12.83;;;6.70;;
10041;SDS011;5061;49.068;12.058;2023-02-28T08:59:27;11.33;;;6.77;;
10041;SDS011;5061;49.068;12.058;2023-02-28T09:02:49;11.00;;;6.47;;
10041;SDS011;5061;49.068;12.058;2023-02-28T09:06:09;9.60;;;6.23;;
10041;SDS011;5061;49.068;12.058;2023-02-28T09:09:31;10.50;;;6.90;;
10041;SDS011;5061;49.068;12.058;2023-02-28T09:12:52;14.90;;;7.40;;
10041;SDS011;5061;49.068;12.058;2023-02-28T09:16:14;11.70;;;7.07;;
10041;SDS011;5061;49.068;12.058;2023-02-28T09:19:36;21.77;;;7.40;;
10041;SDS011;5061;49.068;12.058;2023-02-28T09:22:56;13.73;;;7.10;;
10041;SDS011;5061;49.068;12.058;2023-02-28T09:26:18;13.90;;;7.20;;
10041;SDS011;5061;49.068;12.058;2023-02-28T09:29:42;17.30;;;6.83;;
10041;SDS011;5061;49.068;12.058;2023-02-28T09:33:03;18.53;;;7.20;;
10041;SDS011;5061;49.068;12.058;2023-02-28T09:36:24;12.13;;;7.07;;
10041;SDS011;5061;49.068;12.058;2023-02-28T09:39:46;14.67;;;7.17;;
10041;SDS011;5061;49.068;12.058;2023-02-28T09:43:09;10.80;;;6.80;;
10041;SDS011;5061;49.068;12.058;2023-02-28T09:46:38;13.63;;;7.60;;
10041;SDS011;5061;49.068;12.058;2023-02-28T09:50:17;10.50;;;6.70;;
10041;SDS011;5061;49.068;12.058;2023-02-28T09:53:47;11.40;;;7.20;;
10041;SDS011;5061;49.068;12.058;2023-02-28T10:00:43;12.60;;;6.70;;
10041;SDS011;5061;49.068;12.058;2023-02-28T10:11:15;15.70;;;7.40;;
10041;SDS011;5061;49.068;12.058;2023-02-28T10:14:45;13.27;;;6.90;;
10041;SDS011;5061;49.068;12.058;2023-02-28T10:18:10;10.60;;;6.83;;
10041;SDS011;5061;49.068;12.058;2023-02-28T10:21:42;13.93;;;7.23;;
10041;SDS011;5061;49.068;12.058;2023-02-28T10:25:24;10.97;;;6.33;;
10041;SDS011;5061;49.068;12.058;2023-02-28T10:28:46;11.40;;;7.37;;
10041;SDS011;5061;49.068;12.058;2023-02-28T10:32:08;11.20;;;7.43;;
10041;SDS011;5061;49.068;12.058;2023-02-28T10:35:34;12.40;;;6.73;;
10041;SDS011;5061;49.068;12.058;2023-02-28T10:38:54;12.53;;;7.20;;
10041;SDS011;5061;49.068;12.058;2023-02-28T10:42:28;12.73;;;6.47;;
10041;SDS011;5061;49.068;12.058;2023-02-28T10:49:22;11.40;;;7.40;;
10041;SDS011;5061;49.068;12.058;2023-02-28T10:52:44;11.93;;;7.20;;
10041;SDS011;5061;49.068;12.058;2023-02-28T10:56:08;15.43;;;7.70;;
10041;SDS011;5061;49.068;12.058;2023-02-28T10:59:36;13.60;;;7.60;;
10041;SDS011;5061;49.068;12.058;2023-02-28T11:02:57;9.07;;;6.40;;
10041;SDS011;5061;49.068;12.058;2023-02-28T11:06:19;12.33;;;7.20;;
10041;SDS011;5061;49.068;12.058;2023-02-28T11:09:41;11.13;;;7.57;;
10041;SDS011;5061;49.068;12.058;2023-02-28T11:13:03;7.63;;;5.50;;
10041;SDS011;5061;49.068;12.058;2023-02-28T11:16:32;9.70;;;6.23;;
10041;SDS011;5061;49.068;12.058;2023-02-28T11:20:04;9.87;;;6.13;;
10041;SDS011;5061;49.068;12.058;2023-02-28T11:23:28;9.30;;;6.63;;
10041;SDS011;5061;49.068;12.058;2023-02-28T11:26:52;11.57;;;6.90;;
10041;SDS011;5061;49.068;12.058;2023-02-28T11:33:59;11.63;;;7.40;;
10041;SDS011;5061;49.068;12.058;2023-02-28T11:37:20;12.13;;;7.47;;
10041;SDS011;5061;49.068;12.058;2023-02-28T11:44:28;13.20;;;7.90;;
10041;SDS011;5061;49.068;12.058;2023-02-28T11:48:04;10.93;;;6.67;;
10041;SDS011;5061;49.068;12.058;2023-02-28T11:51:47;12.30;;;6.47;;
10041;SDS011;5061;49.068;12.058;2023-02-28T12:06:16;14.23;;;8.40;;
10041;SDS011;5061;49.068;12.058;2023-02-28T12:20:54;12.10;;;7.70;;
10041;SDS011;5061;49.068;12.058;2023-02-28T12:24:44;10.00;;;6.20;;
10041;SDS011;5061;49.068;12.058;2023-02-28T12:28:30;13.83;;;7.27;;
10041;SDS011;5061;49.068;12.058;2023-02-28T12:31:58;7.97;;;5.90;;
10041;SDS011;5061;49.068;12.058;2023-02-28T12:35:41;12.03;;;6.50;;
10041;SDS011;5061;49.068;12.058;2023-02-28T12:42:39;13.57;;;7.67;;
10041;SDS011;5061;49.068;12.058;2023-02-28T12:46:05;10.80;;;6.53;;
10041;SDS011;5061;49.068;12.058;2023-02-28T12:50:05;10.63;;;6.77;;
10041;SDS011;5061;49.068;12.058;2023-02-28T12:57:09;8.13;;;5.70;;
10041;SDS011;5061;49.068;12.058;2023-02-28T13:00:36;12.10;;;7.53;;
10041;SDS011;5061;49.068;12.058;2023-02-28T13:11:28;9.97;;;6.20;;
10041;SDS011;5061;49.068;12.058;2023-02-28T13:15:07;12.63;;;7.37;;
10041;SDS011;5061;49.068;12.058;2023-02-28T13:18:44;7.53;;;5.27;;
10041;SDS011;5061;49.068;12.058;2023-02-28T13:22:16;11.20;;;7.60;;
10041;SDS011;5061;49.068;12.058;2023-02-28T13:25:55;13.03;;;7.23;;
10041;SDS011;5061;49.068;12.058;2023-02-28T13:32:37;8.97;;;6.10;;
10041;SDS011;5061;49.068;12.058;2023-02-28T13:42:55;10.73;;;6.03;;
10041;SDS011;5061;49.068;12.058;2023-02-28T13:46:16;9.57;;;6.33;;
10041;SDS011;5061;49.068;12.058;2023-02-28T13:49:37;14.70;;;7.00;;
10041;SDS011;5061;49.068;12.058;2023-02-28T13:56:35;11.00;;;6.60;;
10041;SDS011;5061;49.068;12.058;2023-02-28T14:08:20;11.60;;;6.00;;
10041;SDS011;5061;49.068;12.058;2023-02-28T14:11:43;10.10;;;6.67;;
10041;SDS011;5061;49.068;12.058;2023-02-28T14:16:06;9.33;;;6.20;;
10041;SDS011;5061;49.068;12.058;2023-02-28T14:19:31;9.33;;;5.93;;
10041;SDS011;5061;49.068;12.058;2023-02-28T14:22:53;10.17;;;6.90;;
10041;SDS011;5061;49.068;12.058;2023-02-28T14:26:48;9.70;;;6.27;;
10041;SDS011;5061;49.068;12.058;2023-02-28T14:34:02;10.43;;;6.20;;
10041;SDS011;5061;49.068;12.058;2023-02-28T14:37:43;7.93;;;6.10;;
10041;SDS011;5061;49.068;12.058;2023-02-28T14:41:06;8.27;;;5.70;;
10041;SDS011;5061;49.068;12.058;2023-02-28T14:44:42;11.00;;;6.27;;
10041;SDS011;5061;49.068;12.058;2023-02-28T14:48:15;9.83;;;6.70;;
10041;SDS011;5061;49.068;12.058;2023-02-28T14:51:36;10.67;;;6.50;;
10041;SDS011;5061;49.068;12.058;2023-02-28T14:54:59;9.30;;;6.13;;
10041;SDS011;5061;49.068;12.058;2023-02-28T14:58:27;12.90;;;6.20;;
10041;SDS011;5061;49.068;12.058;2023-02-28T15:01:49;10.50;;;6.10;;
10041;SDS011;5061;49.068;12.058;2023-02-28T15:08:36;11.20;;;6.47;;
10041;SDS011;5061;49.068;12.058;2023-02-28T15:11:57;12.03;;;7.03;;
10041;SDS011;5061;49.068;12.058;2023-02-28T15:15:17;10.43;;;6.70;;
10041;SDS011;5061;49.068;12.058;2023-02-28T15:22:28;9.00;;;5.70;;
10041;SDS011;5061;49.068;12.058;2023-02-28T15:25:55;10.90;;;6.80;;
10041;SDS011;5061;49.068;12.058;2023-02-28T15:29:17;9.77;;;6.17;;
10041;SDS011;5061;49.068;12.058;2023-02-28T15:32:41;12.50;;;7.90;;
10041;SDS011;5061;49.068;12.058;2023-02-28T15:39:41;10.50;;;6.90;;
10041;SDS011;5061;49.068;12.058;2023-02-28T15:43:12;11.57;;;6.93;;
10041;SDS011;5061;49.068;12.058;2023-02-28T15:46:34;12.00;;;7.67;;
10041;SDS011;5061;49.068;12.058;2023-02-28T15:50:02;11.00;;;7.27;;
10041;SDS011;5061;49.068;12.058;2023-02-28T15:53:32;10.73;;;6.80;;
10041;SDS011;5061;49.068;12.058;2023-02-28T15:56:57;13.33;;;8.40;;
10041;SDS011;5061;49.068;12.058;2023-02-28T16:00:22;12.33;;;7.40;;
10041;SDS011;5061;49.068;12.058;2023-02-28T16:03:45;13.47;;;7.63;;
10041;SDS011;5061;49.068;12.058;2023-02-28T16:07:17;14.30;;;8.73;;
10041;SDS011;5061;49.068;12.058;2023-02-28T16:10:40;13.20;;;7.37;;
10041;SDS011;5061;49.068;12.058;2023-02-28T16:14:01;10.37;;;6.73;;
10041;SDS011;5061;49.068;12.058;2023-02-28T16:17:27;11.30;;;7.57;;
10041;SDS011;5061;49.068;12.058;2023-02-28T16:20:49;12.73;;;6.77;;
10041;SDS011;5061;49.068;12.058;2023-02-28T16:24:10;14.53;;;8.70;;
10041;SDS011;5061;49.068;12.058;2023-02-28T16:27:32;13.50;;;8.27;;
10041;SDS011;5061;49.068;12.058;2023-02-28T16:30:56;11.53;;;7.43;;
10041;SDS011;5061;49.068;12.058;2023-02-28T16:34:16;15.33;;;7.33;;
10041;SDS011;5061;49.068;12.058;2023-02-28T16:37:37;16.23;;;9.53;;
10041;SDS011;5061;49.068;12.058;2023-02-28T16:40:59;25.77;;;9.60;;
10041;SDS011;5061;49.068;12.058;2023-02-28T16:44:27;14.30;;;9.40;;
10041;SDS011;5061;49.068;12.058;2023-02-28T16:47:50;14.27;;;9.30;;
10041;SDS011;5061;49.068;12.058;2023-02-28T16:51:16;15.87;;;9.90;;
10041;SDS011;5061;49.068;12.058;2023-02-28T16:54:38;15.30;;;9.87;;
10041;SDS011;5061;49.068;12.058;2023-02-28T16:58:01;14.93;;;9.00;;
10041;SDS011;5061;49.068;12.058;2023-02-28T17:01:22;16.53;;;9.10;;
10041;SDS011;5061;49.068;12.058;2023-02-28T17:04:43;19.70;;;10.70;;
10041;SDS011;5061;49.068;12.058;2023-02-28T17:08:03;16.70;;;9.30;;
10041;SDS011;5061;49.068;12.058;2023-02-28T17:11:25;15.60;;;8.47;;
10041;SDS011;5061;49.068;12.058;2023-02-28T17:14:46;15.37;;;9.47;;
10041;SDS011;5061;49.068;12.058;2023-02-28T17:18:08;14.60;;;8.00;;
10041;SDS011;5061;49.068;12.058;2023-02-28T17:21:33;21.63;;;9.40;;
10041;SDS011;5061;49.068;12.058;2023-02-28T17:24:54;16.97;;;8.80;;
10041;SDS011;5061;49.068;12.058;2023-02-28T17:28:15;17.67;;;10.23;;
10041;SDS011;5061;49.068;12.058;2023-02-28T17:31:36;12.83;;;8.07;;
10041;SDS011;5061;49.068;12.058;2023-02-28T17:34:58;17.30;;;9.90;;
10041;SDS011;5061;49.068;12.058;2023-02-28T17:38:19;14.13;;;8.13;;
10041;SDS011;5061;49.068;12.058;2023-02-28T17:41:42;18.17;;;9.60;;
10041;SDS011;5061;49.068;12.058;2023-02-28T17:45:03;15.90;;;8.37;;
10041;SDS011;5061;49.068;12.058;2023-02-28T17:48:24;14.07;;;7.70;;
10041;SDS011;5061;49.068;12.058;2023-02-28T17:51:45;13.17;;;8.77;;
10041;SDS011;5061;49.068;12.058;2023-02-28T17:55:06;15.73;;;8.70;;
10041;SDS011;5061;49.068;12.058;2023-02-28T17:58:27;12.80;;;7.90;;
10041;SDS011;5061;49.068;12.058;2023-02-28T18:01:51;17.07;;;9.33;;
10041;SDS011;5061;49.068;12.058;2023-02-28T18:05:11;17.63;;;8.30;;
10041;SDS011;5061;49.068;12.058;2023-02-28T18:08:32;16.63;;;9.63;;
10041;SDS011;5061;49.068;12.058;2023-02-28T18:11:55;16.80;;;10.20;;
10041;SDS011;5061;49.068;12.058;2023-02-28T18:15:17;17.43;;;10.93;;
10041;SDS011;5061;49.068;12.058;2023-02-28T18:18:40;17.73;;;10.43;;
10041;SDS011;5061;49.068;12.058;2023-02-28T18:22:01;24.57;;;12.73;;
10041;SDS011;5061;49.068;12.058;2023-02-28T18:25:22;19.63;;;10.03;;
10041;SDS011;5061;49.068;12.058;2023-02-28T18:28:43;17.47;;;9.23;;
10041;SDS011;5061;49.068;12.058;2023-02-28T18:32:04;19.90;;;10.60;;
10041;SDS011;5061;49.068;12.058;2023-02-28T18:35:26;19.80;;;11.00;;
10041;SDS011;5061;49.068;12.058;2023-02-28T18:38:56;17.30;;;9.80;;
10041;SDS011;5061;49.068;12.058;2023-02-28T18:42:17;21.17;;;10.93;;
10041;SDS011;5061;49.068;12.058;2023-02-28T18:45:38;21.70;;;10.43;;
10041;SDS011;5061;49.068;12.058;2023-02-28T18:48:59;18.07;;;9.90;;
10041;SDS011;5061;49.068;12.058;2023-02-28T18:52:20;24.30;;;10.53;;
10041;SDS011;5061;49.068;12.058;2023-02-28T18:55:41;18.70;;;9.53;;
10041;SDS011;5061;49.068;12.058;2023-02-28T18:59:02;20.53;;;10.47;;
10041;SDS011;5061;49.068;12.058;2023-02-28T19:02:23;24.40;;;11.27;;
10041;SDS011;5061;49.068;12.058;2023-02-28T19:05:43;19.00;;;10.90;;
10041;SDS011;5061;49.068;12.058;2023-02-28T19:09:04;17.80;;;9.50;;
10041;SDS011;5061;49.068;12.058;2023-02-28T19:12:25;15.03;;;8.17;;
10041;SDS011;5061;49.068;12.058;2023-02-28T19:15:46;16.17;;;9.13;;
10041;SDS011;5061;49.068;12.058;2023-02-28T19:19:07;16.37;;;9.40;;
10041;SDS011;5061;49.068;12.058;2023-02-28T19:22:27;16.60;;;8.83;;
10041;SDS011;5061;49.068;12.058;2023-02-28T19:25:48;12.53;;;7.73;;
10041;SDS011;5061;49.068;12.058;2023-02-28T19:29:09;16.90;;;9.20;;
10041;SDS011;5061;49.068;12.058;2023-02-28T19:32:29;15.87;;;9.13;;
10041;SDS011;5061;49.068;12.058;2023-02-28T19:35:50;15.93;;;8.40;;
10041;SDS011;5061;49.068;12.058;2023-02-28T19:39:11;17.30;;;9.53;;
10041;SDS011;5061;49.068;12.058;2023-02-28T19:42:32;15.53;;;9.57;;
10041;SDS011;5061;49.068;12.058;2023-02-28T19:45:54;12.20;;;7.57;;
10041;SDS011;5061;49.068;12.058;2023-02-28T19:49:17;15.07;;;8.10;;
10041;SDS011;5061;49.068;12.058;2023-02-28T19:52:41;15.20;;;8.50;;
10041;SDS011;5061;49.068;12.058;2023-02-28T19:56:02;14.60;;;8.43;;
10041;SDS011;5061;49.068;12.058;2023-02-28T19:59:23;12.47;;;7.57;;
10041;SDS011;5061;49.068;12.058;2023-02-28T20:02:44;13.90;;;8.40;;
10041;SDS011;5061;49.068;12.058;2023-02-28T20:06:06;16.87;;;8.83;;
10041;SDS011;5061;49.068;12.058;2023-02-28T20:09:29;17.27;;;9.07;;
10041;SDS011;5061;49.068;12.058;2023-02-28T20:12:50;14.80;;;8.37;;
10041;SDS011;5061;49.068;12.058;2023-02-28T20:16:12;15.20;;;8.70;;
10041;SDS011;5061;49.068;12.058;2023-02-28T20:19:33;12.77;;;7.47;;
10041;SDS011;5061;49.068;12.058;2023-02-28T20:22:54;15.83;;;7.80;;
10041;SDS011;5061;49.068;12.058;2023-02-28T20:26:15;11.60;;;7.63;;
10041;SDS011;5061;49.068;12.058;2023-02-28T20:29:35;14.50;;;8.10;;
10041;SDS011;5061;49.068;12.058;2023-02-28T20:32:56;13.10;;;7.40;;
10041;SDS011;5061;49.068;12.058;2023-02-28T20:36:17;11.30;;;7.43;;
10041;SDS011;5061;49.068;12.058;2023-02-28T20:39:40;15.90;;;7.90;;
10041;SDS011;5061;49.068;12.058;2023-02-28T20:43:00;12.77;;;8.13;;
10041;SDS011;5061;49.068;12.058;2023-02-28T20:46:21;13.27;;;7.73;;
10041;SDS011;5061;49.068;12.058;2023-02-28T20:49:42;16.13;;;8.37;;
10041;SDS011;5061;49.068;12.058;2023-02-28T20:53:02;15.20;;;8.07;;
10041;SDS011;5061;49.068;12.058;2023-02-28T20:56:23;9.90;;;6.37;;
10041;SDS011;5061;49.068;12.058;2023-02-28T20:59:44;11.53;;;6.70;;
10041;SDS011;5061;49.068;12.058;2023-02-28T21:03:04;10.80;;;6.90;;
10041;SDS011;5061;49.068;12.058;2023-02-28T21:06:29;11.10;;;6.10;;
10041;SDS011;5061;49.068;12.058;2023-02-28T21:09:52;13.93;;;6.80;;
10041;SDS011;5061;49.068;12.058;2023-02-28T21:13:13;11.23;;;7.03;;
10041;SDS011;5061;49.068;12.058;2023-02-28T21:16:34;11.47;;;6.00;;
10041;SDS011;5061;49.068;12.058;2023-02-28T21:19:55;12.93;;;7.27;;
10041;SDS011;5061;49.068;12.058;2023-02-28T21:23:15;10.73;;;6.23;;
10041;SDS011;5061;49.068;12.058;2023-02-28T21:26:37;10.27;;;5.27;;
10041;SDS011;5061;49.068;12.058;2023-02-28T21:29:59;11.30;;;6.20;;
10041;SDS011;5061;49.068;12.058;2023-02-28T21:33:19;11.90;;;5.83;;
10041;SDS011;5061;49.068;12.058;2023-02-28T21:36:41;10.83;;;6.40;;
10041;SDS011;5061;49.068;12.058;2023-02-28T21:40:04;15.27;;;6.60;;
10041;SDS011;5061;49.068;12.058;2023-02-28T21:43:28;10.20;;;5.73;;
10041;SDS011;5061;49.068;12.058;2023-02-28T21:46:49;11.93;;;6.23;;
10041;SDS011;5061;49.068;12.058;2023-02-28T21:50:13;11.57;;;5.93;;
10041;SDS011;5061;49.068;12.058;2023-02-28T21:53:35;8.40;;;4.83;;
10041;SDS011;5061;49.068;12.058;2023-02-28T21:56:56;6.67;;;4.70;;
10041;SDS011;5061;49.068;12.058;2023-02-28T22:00:18;12.27;;;5.97;;
10041;SDS011;5061;49.068;12.058;2023-02-28T22:03:40;8.27;;;5.27;;
10041;SDS011;5061;49.068;12.058;2023-02-28T22:07:02;10.20;;;5.33;;
10041;SDS011;5061;49.068;12.058;2023-02-28T22:10:23;9.00;;;5.47;;
10041;SDS011;5061;49.068;12.058;2023-02-28T22:13:44;10.13;;;5.60;;
10041;SDS011;5061;49.068;12.058;2023-02-28T22:17:04;9.77;;;5.90;;
10041;SDS011;5061;49.068;12.058;2023-02-28T22:20:25;14.80;;;6.90;;